sensor_id;sensor_type;location;lat;lon;timestamp;pressure;altitude;pressure_sealevel;temperature;humidity
48680;BME280;34475;51.658;5.634;2023-01-31T00:00:00;102230;;;3.1;100.0
48680;BME280;34475;51.658;5.634;2023-01-31T00:01:04;102240;;;3.0;100.0
48680;BME280;34475;51.658;5.634;2023-01-31T00:02:00;102240;;;3.0;100.0
48680;BME280;34475;51.658;5.634;2023-01-31T00:03:00;102230;;;3.0;100.0
48680;BME280;34475;51.658;5.634;2023-01-31T00:04:01;102230;;;3.0;100.0
48680;BME280;34475;51.658;5.634;2023-01-31T00:05:00;102230;;;3.0;100.0
48680;BME280;34475;51.658;5.634;2023-01-31T00:06:17;102230;;;3.0;100.0
48680;BME280;34475;51.658;5.634;2023-01-31T00:07:00;102230;;;3.0;100.0
48680;BME280;34475;51.658;5.634;2023-01-31T00:08:00;102230;;;3.0;100.0
48680;BME280;34475;51.658;5.634;2023-01-31T00:09:00;102230;;;2.9;100.0
48680;BME280;34475;51.658;5.634;2023-01-31T00:10:00;102230;;;2.9;100.0
48680;BME280;34475;51.658;5.634;2023-01-31T00:11:00;102230;;;2.9;100.0
48680;BME280;34475;51.658;5.634;2023-01-31T00:12:00;102230;;;2.9;100.0
48680;BME280;34475;51.658;5.634;2023-01-31T00:13:00;102240;;;2.8;100.0
48680;BME280;34475;51.658;5.634;2023-01-31T00:14:03;102240;;;2.8;100.0
48680;BME280;34475;51.658;5.634;2023-01-31T00:15:00;102250;;;2.9;100.0
48680;BME280;34475;51.658;5.634;2023-01-31T00:16:00;102250;;;2.9;100.0
48680;BME280;34475;51.658;5.634;2023-01-31T00:17:00;102250;;;2.8;100.0
48680;BME280;34475;51.658;5.634;2023-01-31T00:18:00;102250;;;2.8;100.0
48680;BME280;34475;51.658;5.634;2023-01-31T00:19:00;102250;;;2.8;100.0
48680;BME280;34475;51.658;5.634;2023-01-31T00:20:00;102250;;;2.8;100.0
48680;BME280;34475;51.658;5.634;2023-01-31T00:21:16;102250;;;2.9;100.0
48680;BME280;34475;51.658;5.634;2023-01-31T00:22:00;102250;;;2.9;100.0
48680;BME280;34475;51.658;5.634;2023-01-31T00:23:00;102250;;;2.9;100.0
48680;BME280;34475;51.658;5.634;2023-01-31T00:24:00;102250;;;2.9;100.0
48680;BME280;34475;51.658;5.634;2023-01-31T00:25:00;102260;;;2.8;100.0
48680;BME280;34475;51.658;5.634;2023-01-31T00:27:00;102250;;;2.8;100.0
48680;BME280;34475;51.658;5.634;2023-01-31T00:28:00;102250;;;2.8;100.0
48680;BME280;34475;51.658;5.634;2023-01-31T00:29:01;102250;;;2.8;100.0
48680;BME280;34475;51.658;5.634;2023-01-31T00:30:00;102250;;;2.8;100.0
48680;BME280;34475;51.658;5.634;2023-01-31T00:31:00;102250;;;2.8;100.0
48680;BME280;34475;51.658;5.634;2023-01-31T00:32:00;102250;;;2.8;100.0
48680;BME280;34475;51.658;5.634;2023-01-31T00:33:00;102250;;;2.7;100.0
48680;BME280;34475;51.658;5.634;2023-01-31T00:34:00;102250;;;2.7;100.0
48680;BME280;34475;51.658;5.634;2023-01-31T00:35:00;102260;;;2.7;100.0
48680;BME280;34475;51.658;5.634;2023-01-31T00:36:02;102260;;;2.7;100.0
48680;BME280;34475;51.658;5.634;2023-01-31T00:37:00;102260;;;2.7;100.0
48680;BME280;34475;51.658;5.634;2023-01-31T00:38:00;102260;;;2.7;100.0
48680;BME280;34475;51.658;5.634;2023-01-31T00:39:01;102260;;;2.6;100.0
48680;BME280;34475;51.658;5.634;2023-01-31T00:40:00;102260;;;2.6;100.0
48680;BME280;34475;51.658;5.634;2023-01-31T00:41:00;102260;;;2.7;100.0
48680;BME280;34475;51.658;5.634;2023-01-31T00:42:00;102260;;;2.7;100.0
48680;BME280;34475;51.658;5.634;2023-01-31T00:43:00;102250;;;2.6;100.0
48680;BME280;34475;51.658;5.634;2023-01-31T00:44:01;102250;;;2.6;100.0
48680;BME280;34475;51.658;5.634;2023-01-31T00:45:00;102250;;;2.7;100.0
48680;BME280;34475;51.658;5.634;2023-01-31T00:46:00;102250;;;2.7;100.0
48680;BME280;34475;51.658;5.634;2023-01-31T00:47:00;102240;;;2.6;100.0
48680;BME280;34475;51.658;5.634;2023-01-31T00:48:00;102240;;;2.6;100.0
48680;BME280;34475;51.658;5.634;2023-01-31T00:49:00;102240;;;2.6;100.0
48680;BME280;34475;51.658;5.634;2023-01-31T00:50:00;102240;;;2.6;100.0
48680;BME280;34475;51.658;5.634;2023-01-31T00:51:00;102230;;;2.5;100.0
48680;BME280;34475;51.658;5.634;2023-01-31T00:52:00;102230;;;2.5;100.0
48680;BME280;34475;51.658;5.634;2023-01-31T00:53:00;102240;;;2.5;100.0
48680;BME280;34475;51.658;5.634;2023-01-31T00:54:00;102240;;;2.5;100.0
48680;BME280;34475;51.658;5.634;2023-01-31T00:55:00;102240;;;2.4;100.0
48680;BME280;34475;51.658;5.634;2023-01-31T00:56:01;102240;;;2.4;100.0
48680;BME280;34475;51.658;5.634;2023-01-31T00:57:00;102230;;;2.4;100.0
48680;BME280;34475;51.658;5.634;2023-01-31T00:58:00;102230;;;2.4;100.0
48680;BME280;34475;51.658;5.634;2023-01-31T00:59:00;102240;;;2.4;100.0
48680;BME280;34475;51.658;5.634;2023-01-31T01:00:00;102240;;;2.4;100.0
48680;BME280;34475;51.658;5.634;2023-01-31T01:01:16;102240;;;2.5;100.0
48680;BME280;34475;51.658;5.634;2023-01-31T01:02:00;102240;;;2.5;100.0
48680;BME280;34475;51.658;5.634;2023-01-31T01:03:00;102240;;;2.3;100.0
48680;BME280;34475;51.658;5.634;2023-01-31T01:04:00;102240;;;2.3;100.0
48680;BME280;34475;51.658;5.634;2023-01-31T01:05:00;102240;;;2.3;100.0
48680;BME280;34475;51.658;5.634;2023-01-31T01:06:00;102240;;;2.3;100.0
48680;BME280;34475;51.658;5.634;2023-01-31T01:07:00;102230;;;2.3;100.0
48680;BME280;34475;51.658;5.634;2023-01-31T01:08:00;102230;;;2.3;100.0
48680;BME280;34475;51.658;5.634;2023-01-31T01:09:00;102230;;;2.3;100.0
48680;BME280;34475;51.658;5.634;2023-01-31T01:10:00;102230;;;2.3;100.0
48680;BME280;34475;51.658;5.634;2023-01-31T01:11:17;102230;;;2.3;100.0
48680;BME280;34475;51.658;5.634;2023-01-31T01:12:00;102230;;;2.3;100.0
48680;BME280;34475;51.658;5.634;2023-01-31T01:13:00;102230;;;2.3;100.0
48680;BME280;34475;51.658;5.634;2023-01-31T01:14:00;102230;;;2.3;100.0
48680;BME280;34475;51.658;5.634;2023-01-31T01:15:00;102220;;;2.4;100.0
48680;BME280;34475;51.658;5.634;2023-01-31T01:16:03;102220;;;2.4;100.0
48680;BME280;34475;51.658;5.634;2023-01-31T01:17:00;102220;;;2.4;100.0
48680;BME280;34475;51.658;5.634;2023-01-31T01:18:00;102220;;;2.4;100.0
48680;BME280;34475;51.658;5.634;2023-01-31T01:19:01;102210;;;2.5;100.0
48680;BME280;34475;51.658;5.634;2023-01-31T01:20:00;102210;;;2.5;100.0
48680;BME280;34475;51.658;5.634;2023-01-31T01:21:08;102210;;;2.5;100.0
48680;BME280;34475;51.658;5.634;2023-01-31T01:22:00;102210;;;2.5;100.0
48680;BME280;34475;51.658;5.634;2023-01-31T01:23:00;102210;;;2.4;100.0
48680;BME280;34475;51.658;5.634;2023-01-31T01:24:00;102210;;;2.4;100.0
48680;BME280;34475;51.658;5.634;2023-01-31T01:25:00;102210;;;2.5;100.0
48680;BME280;34475;51.658;5.634;2023-01-31T01:26:00;102210;;;2.5;100.0
48680;BME280;34475;51.658;5.634;2023-01-31T01:27:00;102210;;;2.6;100.0
48680;BME280;34475;51.658;5.634;2023-01-31T01:28:00;102210;;;2.6;100.0
48680;BME280;34475;51.658;5.634;2023-01-31T01:29:00;102210;;;2.6;100.0
48680;BME280;34475;51.658;5.634;2023-01-31T01:30:00;102210;;;2.6;100.0
48680;BME280;34475;51.658;5.634;2023-01-31T01:31:08;102200;;;2.6;100.0
48680;BME280;34475;51.658;5.634;2023-01-31T01:32:00;102200;;;2.6;100.0
48680;BME280;34475;51.658;5.634;2023-01-31T01:33:00;102200;;;2.6;100.0
48680;BME280;34475;51.658;5.634;2023-01-31T01:34:02;102200;;;2.6;100.0
48680;BME280;34475;51.658;5.634;2023-01-31T01:35:00;102200;;;2.5;100.0
48680;BME280;34475;51.658;5.634;2023-01-31T01:36:01;102200;;;2.5;100.0
48680;BME280;34475;51.658;5.634;2023-01-31T01:37:00;102200;;;2.6;100.0
48680;BME280;34475;51.658;5.634;2023-01-31T01:38:00;102200;;;2.6;100.0
48680;BME280;34475;51.658;5.634;2023-01-31T01:39:00;102200;;;2.6;100.0
48680;BME280;34475;51.658;5.634;2023-01-31T01:40:00;102200;;;2.6;100.0
48680;BME280;34475;51.658;5.634;2023-01-31T01:41:00;102210;;;2.6;100.0
48680;BME280;34475;51.658;5.634;2023-01-31T01:42:00;102210;;;2.6;100.0
48680;BME280;34475;51.658;5.634;2023-01-31T01:43:00;102200;;;2.6;100.0
48680;BME280;34475;51.658;5.634;2023-01-31T01:44:01;102200;;;2.6;100.0
48680;BME280;34475;51.658;5.634;2023-01-31T01:45:01;102200;;;2.5;100.0
48680;BME280;34475;51.658;5.634;2023-01-31T01:46:00;102200;;;2.5;100.0
48680;BME280;34475;51.658;5.634;2023-01-31T01:47:00;102200;;;2.7;100.0
48680;BME280;34475;51.658;5.634;2023-01-31T01:48:02;102200;;;2.7;100.0
48680;BME280;34475;51.658;5.634;2023-01-31T01:50:02;102200;;;2.6;100.0
48680;BME280;34475;51.658;5.634;2023-01-31T01:51:00;102200;;;2.5;100.0
48680;BME280;34475;51.658;5.634;2023-01-31T01:52:01;102200;;;2.5;100.0
48680;BME280;34475;51.658;5.634;2023-01-31T01:53:02;102200;;;2.6;100.0
48680;BME280;34475;51.658;5.634;2023-01-31T01:54:02;102200;;;2.6;100.0
48680;BME280;34475;51.658;5.634;2023-01-31T01:55:08;102200;;;2.5;100.0
48680;BME280;34475;51.658;5.634;2023-01-31T01:56:01;102200;;;2.5;100.0
48680;BME280;34475;51.658;5.634;2023-01-31T01:57:01;102200;;;2.5;100.0
48680;BME280;34475;51.658;5.634;2023-01-31T01:58:02;102200;;;2.5;100.0
48680;BME280;34475;51.658;5.634;2023-01-31T01:59:02;102200;;;2.5;100.0
48680;BME280;34475;51.658;5.634;2023-01-31T02:01:00;102190;;;2.5;100.0
48680;BME280;34475;51.658;5.634;2023-01-31T02:02:00;102190;;;2.5;100.0
48680;BME280;34475;51.658;5.634;2023-01-31T02:03:00;102190;;;2.5;100.0
48680;BME280;34475;51.658;5.634;2023-01-31T02:04:01;102190;;;2.5;100.0
48680;BME280;34475;51.658;5.634;2023-01-31T02:05:00;102190;;;2.5;100.0
48680;BME280;34475;51.658;5.634;2023-01-31T02:06:02;102190;;;2.5;100.0
48680;BME280;34475;51.658;5.634;2023-01-31T02:07:00;102190;;;2.5;100.0
48680;BME280;34475;51.658;5.634;2023-01-31T02:08:00;102190;;;2.5;100.0
48680;BME280;34475;51.658;5.634;2023-01-31T02:09:00;102190;;;2.4;100.0
48680;BME280;34475;51.658;5.634;2023-01-31T02:10:02;102190;;;2.4;100.0
48680;BME280;34475;51.658;5.634;2023-01-31T02:11:07;102200;;;2.4;100.0
48680;BME280;34475;51.658;5.634;2023-01-31T02:12:00;102200;;;2.4;100.0
48680;BME280;34475;51.658;5.634;2023-01-31T02:13:00;102200;;;2.5;100.0
48680;BME280;34475;51.658;5.634;2023-01-31T02:14:08;102200;;;2.5;100.0
48680;BME280;34475;51.658;5.634;2023-01-31T02:15:00;102200;;;2.4;100.0
48680;BME280;34475;51.658;5.634;2023-01-31T02:16:00;102200;;;2.4;100.0
48680;BME280;34475;51.658;5.634;2023-01-31T02:17:00;102210;;;2.4;100.0
48680;BME280;34475;51.658;5.634;2023-01-31T02:18:00;102210;;;2.4;100.0
48680;BME280;34475;51.658;5.634;2023-01-31T02:19:00;102210;;;2.4;100.0
48680;BME280;34475;51.658;5.634;2023-01-31T02:20:08;102210;;;2.4;100.0
48680;BME280;34475;51.658;5.634;2023-01-31T02:21:07;102210;;;2.5;100.0
48680;BME280;34475;51.658;5.634;2023-01-31T02:22:06;102210;;;2.5;100.0
48680;BME280;34475;51.658;5.634;2023-01-31T02:24:05;102210;;;2.5;100.0
48680;BME280;34475;51.658;5.634;2023-01-31T02:26:06;102210;;;2.6;100.0
48680;BME280;34475;51.658;5.634;2023-01-31T02:28:05;102220;;;2.6;100.0
48680;BME280;34475;51.658;5.634;2023-01-31T02:33:02;102220;;;2.7;100.0
48680;BME280;34475;51.658;5.634;2023-01-31T02:36:03;102220;;;2.6;100.0
48680;BME280;34475;51.658;5.634;2023-01-31T02:37:05;102220;;;2.6;100.0
48680;BME280;34475;51.658;5.634;2023-01-31T02:39:07;102220;;;2.6;100.0
48680;BME280;34475;51.658;5.634;2023-01-31T02:40:12;102220;;;2.6;100.0
48680;BME280;34475;51.658;5.634;2023-01-31T02:41:04;102220;;;2.6;100.0
48680;BME280;34475;51.658;5.634;2023-01-31T02:42:04;102220;;;2.6;100.0
48680;BME280;34475;51.658;5.634;2023-01-31T02:44:06;102220;;;2.6;100.0
48680;BME280;34475;51.658;5.634;2023-01-31T02:45:12;102210;;;2.7;100.0
48680;BME280;34475;51.658;5.634;2023-01-31T02:46:09;102210;;;2.7;100.0
48680;BME280;34475;51.658;5.634;2023-01-31T02:48:12;102210;;;2.8;100.0
48680;BME280;34475;51.658;5.634;2023-01-31T02:49:04;102200;;;2.8;100.0
48680;BME280;34475;51.658;5.634;2023-01-31T02:50:05;102200;;;2.8;100.0
48680;BME280;34475;51.658;5.634;2023-01-31T02:51:04;102200;;;2.9;100.0
48680;BME280;34475;51.658;5.634;2023-01-31T02:52:01;102200;;;2.9;100.0
48680;BME280;34475;51.658;5.634;2023-01-31T02:53:03;102200;;;2.8;100.0
48680;BME280;34475;51.658;5.634;2023-01-31T02:54:08;102200;;;2.8;100.0
48680;BME280;34475;51.658;5.634;2023-01-31T02:55:06;102190;;;2.8;100.0
48680;BME280;34475;51.658;5.634;2023-01-31T02:56:02;102190;;;2.8;100.0
48680;BME280;34475;51.658;5.634;2023-01-31T02:57:00;102190;;;3.0;100.0
48680;BME280;34475;51.658;5.634;2023-01-31T02:58:01;102190;;;3.0;100.0
48680;BME280;34475;51.658;5.634;2023-01-31T03:00:00;102200;;;2.9;100.0
48680;BME280;34475;51.658;5.634;2023-01-31T03:01:00;102190;;;3.0;100.0
48680;BME280;34475;51.658;5.634;2023-01-31T03:02:01;102190;;;3.0;100.0
48680;BME280;34475;51.658;5.634;2023-01-31T03:03:02;102190;;;2.8;100.0
48680;BME280;34475;51.658;5.634;2023-01-31T03:04:01;102190;;;2.8;100.0
48680;BME280;34475;51.658;5.634;2023-01-31T03:05:00;102200;;;2.9;100.0
48680;BME280;34475;51.658;5.634;2023-01-31T03:07:09;102200;;;3.0;100.0
48680;BME280;34475;51.658;5.634;2023-01-31T03:08:00;102200;;;3.0;100.0
48680;BME280;34475;51.658;5.634;2023-01-31T03:09:03;102190;;;3.0;100.0
48680;BME280;34475;51.658;5.634;2023-01-31T03:11:01;102190;;;3.0;100.0
48680;BME280;34475;51.658;5.634;2023-01-31T03:13:08;102190;;;3.1;100.0
48680;BME280;34475;51.658;5.634;2023-01-31T03:16:05;102190;;;3.1;100.0
48680;BME280;34475;51.658;5.634;2023-01-31T03:17:03;102180;;;3.0;100.0
48680;BME280;34475;51.658;5.634;2023-01-31T03:18:02;102180;;;3.0;100.0
48680;BME280;34475;51.658;5.634;2023-01-31T03:19:04;102180;;;3.1;100.0
48680;BME280;34475;51.658;5.634;2023-01-31T03:20:06;102180;;;3.1;100.0
48680;BME280;34475;51.658;5.634;2023-01-31T03:21:02;102180;;;3.0;100.0
48680;BME280;34475;51.658;5.634;2023-01-31T03:22:02;102180;;;3.0;100.0
48680;BME280;34475;51.658;5.634;2023-01-31T03:23:01;102190;;;3.1;100.0
48680;BME280;34475;51.658;5.634;2023-01-31T03:24:00;102190;;;3.1;100.0
48680;BME280;34475;51.658;5.634;2023-01-31T03:25:01;102180;;;3.1;100.0
48680;BME280;34475;51.658;5.634;2023-01-31T03:26:00;102180;;;3.1;100.0
48680;BME280;34475;51.658;5.634;2023-01-31T03:27:00;102180;;;3.1;100.0
48680;BME280;34475;51.658;5.634;2023-01-31T03:28:01;102180;;;3.1;100.0
48680;BME280;34475;51.658;5.634;2023-01-31T03:29:00;102180;;;3.1;100.0
48680;BME280;34475;51.658;5.634;2023-01-31T03:30:02;102180;;;3.1;100.0
48680;BME280;34475;51.658;5.634;2023-01-31T03:31:02;102180;;;3.1;100.0
48680;BME280;34475;51.658;5.634;2023-01-31T03:32:07;102180;;;3.1;100.0
48680;BME280;34475;51.658;5.634;2023-01-31T03:33:03;102180;;;3.1;100.0
48680;BME280;34475;51.658;5.634;2023-01-31T03:34:03;102180;;;3.1;100.0
48680;BME280;34475;51.658;5.634;2023-01-31T03:35:00;102180;;;3.1;100.0
48680;BME280;34475;51.658;5.634;2023-01-31T03:36:04;102180;;;3.1;100.0
48680;BME280;34475;51.658;5.634;2023-01-31T03:37:06;102170;;;3.2;100.0
48680;BME280;34475;51.658;5.634;2023-01-31T03:38:04;102170;;;3.2;100.0
48680;BME280;34475;51.658;5.634;2023-01-31T03:41:01;102160;;;3.2;100.0
48680;BME280;34475;51.658;5.634;2023-01-31T03:42:03;102160;;;3.2;100.0
48680;BME280;34475;51.658;5.634;2023-01-31T03:43:03;102160;;;3.2;100.0
48680;BME280;34475;51.658;5.634;2023-01-31T03:44:01;102160;;;3.2;100.0
48680;BME280;34475;51.658;5.634;2023-01-31T03:45:03;102160;;;3.2;100.0
48680;BME280;34475;51.658;5.634;2023-01-31T03:46:01;102160;;;3.2;100.0
48680;BME280;34475;51.658;5.634;2023-01-31T03:47:03;102160;;;3.2;100.0
48680;BME280;34475;51.658;5.634;2023-01-31T03:48:01;102160;;;3.2;100.0
48680;BME280;34475;51.658;5.634;2023-01-31T03:49:00;102160;;;3.2;100.0
48680;BME280;34475;51.658;5.634;2023-01-31T03:50:02;102160;;;3.2;100.0
48680;BME280;34475;51.658;5.634;2023-01-31T03:51:01;102150;;;3.2;100.0
48680;BME280;34475;51.658;5.634;2023-01-31T03:52:03;102150;;;3.2;100.0
48680;BME280;34475;51.658;5.634;2023-01-31T03:53:04;102150;;;3.2;100.0
48680;BME280;34475;51.658;5.634;2023-01-31T03:54:01;102150;;;3.2;100.0
48680;BME280;34475;51.658;5.634;2023-01-31T03:55:07;102150;;;3.2;100.0
48680;BME280;34475;51.658;5.634;2023-01-31T03:56:02;102150;;;3.2;100.0
48680;BME280;34475;51.658;5.634;2023-01-31T03:57:02;102140;;;3.2;100.0
48680;BME280;34475;51.658;5.634;2023-01-31T03:58:00;102140;;;3.2;100.0
48680;BME280;34475;51.658;5.634;2023-01-31T03:59:03;102140;;;3.2;100.0
48680;BME280;34475;51.658;5.634;2023-01-31T04:00:01;102140;;;3.2;100.0
48680;BME280;34475;51.658;5.634;2023-01-31T04:01:00;102140;;;3.3;100.0
48680;BME280;34475;51.658;5.634;2023-01-31T04:02:00;102140;;;3.3;100.0
48680;BME280;34475;51.658;5.634;2023-01-31T04:03:05;102150;;;3.3;100.0
48680;BME280;34475;51.658;5.634;2023-01-31T04:04:02;102150;;;3.3;100.0
48680;BME280;34475;51.658;5.634;2023-01-31T04:05:06;102140;;;3.3;100.0
48680;BME280;34475;51.658;5.634;2023-01-31T04:06:00;102140;;;3.3;100.0
48680;BME280;34475;51.658;5.634;2023-01-31T04:07:00;102140;;;3.3;100.0
48680;BME280;34475;51.658;5.634;2023-01-31T04:08:00;102140;;;3.3;100.0
48680;BME280;34475;51.658;5.634;2023-01-31T04:09:00;102140;;;3.3;100.0
48680;BME280;34475;51.658;5.634;2023-01-31T04:10:00;102140;;;3.3;100.0
48680;BME280;34475;51.658;5.634;2023-01-31T04:11:03;102140;;;3.3;100.0
48680;BME280;34475;51.658;5.634;2023-01-31T04:12:02;102140;;;3.3;100.0
48680;BME280;34475;51.658;5.634;2023-01-31T04:13:00;102140;;;3.4;100.0
48680;BME280;34475;51.658;5.634;2023-01-31T04:14:00;102140;;;3.4;100.0
48680;BME280;34475;51.658;5.634;2023-01-31T04:15:00;102140;;;3.4;100.0
48680;BME280;34475;51.658;5.634;2023-01-31T04:16:00;102140;;;3.4;100.0
48680;BME280;34475;51.658;5.634;2023-01-31T04:17:00;102140;;;3.5;100.0
48680;BME280;34475;51.658;5.634;2023-01-31T04:18:00;102140;;;3.5;100.0
48680;BME280;34475;51.658;5.634;2023-01-31T04:19:00;102140;;;3.5;100.0
48680;BME280;34475;51.658;5.634;2023-01-31T04:20:00;102140;;;3.5;100.0
48680;BME280;34475;51.658;5.634;2023-01-31T04:21:00;102140;;;3.4;100.0
48680;BME280;34475;51.658;5.634;2023-01-31T04:22:00;102140;;;3.4;100.0
48680;BME280;34475;51.658;5.634;2023-01-31T04:23:00;102140;;;3.4;100.0
48680;BME280;34475;51.658;5.634;2023-01-31T04:24:00;102140;;;3.4;100.0
48680;BME280;34475;51.658;5.634;2023-01-31T04:25:00;102140;;;3.3;100.0
48680;BME280;34475;51.658;5.634;2023-01-31T04:26:00;102140;;;3.3;100.0
48680;BME280;34475;51.658;5.634;2023-01-31T04:27:00;102140;;;3.4;100.0
48680;BME280;34475;51.658;5.634;2023-01-31T04:28:00;102140;;;3.4;100.0
48680;BME280;34475;51.658;5.634;2023-01-31T04:29:00;102140;;;3.4;100.0
48680;BME280;34475;51.658;5.634;2023-01-31T04:30:00;102140;;;3.4;100.0
48680;BME280;34475;51.658;5.634;2023-01-31T04:31:00;102130;;;3.3;100.0
48680;BME280;34475;51.658;5.634;2023-01-31T04:32:00;102130;;;3.3;100.0
48680;BME280;34475;51.658;5.634;2023-01-31T04:33:00;102130;;;3.3;100.0
48680;BME280;34475;51.658;5.634;2023-01-31T04:34:00;102130;;;3.3;100.0
48680;BME280;34475;51.658;5.634;2023-01-31T04:35:00;102130;;;3.3;100.0
48680;BME280;34475;51.658;5.634;2023-01-31T04:36:00;102130;;;3.3;100.0
48680;BME280;34475;51.658;5.634;2023-01-31T04:37:00;102130;;;3.4;100.0
48680;BME280;34475;51.658;5.634;2023-01-31T04:38:00;102130;;;3.4;100.0
48680;BME280;34475;51.658;5.634;2023-01-31T04:39:00;102130;;;3.3;100.0
48680;BME280;34475;51.658;5.634;2023-01-31T04:40:00;102130;;;3.3;100.0
48680;BME280;34475;51.658;5.634;2023-01-31T04:41:00;102140;;;3.2;100.0
48680;BME280;34475;51.658;5.634;2023-01-31T04:42:00;102140;;;3.2;100.0
48680;BME280;34475;51.658;5.634;2023-01-31T04:43:00;102130;;;3.3;100.0
48680;BME280;34475;51.658;5.634;2023-01-31T04:44:00;102130;;;3.3;100.0
48680;BME280;34475;51.658;5.634;2023-01-31T04:45:00;102130;;;3.2;100.0
48680;BME280;34475;51.658;5.634;2023-01-31T04:46:00;102130;;;3.2;100.0
48680;BME280;34475;51.658;5.634;2023-01-31T04:47:00;102120;;;3.2;100.0
48680;BME280;34475;51.658;5.634;2023-01-31T04:48:00;102120;;;3.2;100.0
48680;BME280;34475;51.658;5.634;2023-01-31T04:49:00;102130;;;3.2;100.0
48680;BME280;34475;51.658;5.634;2023-01-31T04:50:00;102130;;;3.2;100.0
48680;BME280;34475;51.658;5.634;2023-01-31T04:51:00;102120;;;3.2;100.0
48680;BME280;34475;51.658;5.634;2023-01-31T04:52:00;102120;;;3.2;100.0
48680;BME280;34475;51.658;5.634;2023-01-31T04:53:00;102120;;;3.1;100.0
48680;BME280;34475;51.658;5.634;2023-01-31T04:54:00;102120;;;3.1;100.0
48680;BME280;34475;51.658;5.634;2023-01-31T04:55:00;102110;;;3.1;100.0
48680;BME280;34475;51.658;5.634;2023-01-31T04:56:00;102110;;;3.1;100.0
48680;BME280;34475;51.658;5.634;2023-01-31T04:57:00;102110;;;3.1;100.0
48680;BME280;34475;51.658;5.634;2023-01-31T04:58:00;102110;;;3.1;100.0
48680;BME280;34475;51.658;5.634;2023-01-31T04:59:00;102110;;;3.1;100.0
48680;BME280;34475;51.658;5.634;2023-01-31T05:00:00;102110;;;3.1;100.0
48680;BME280;34475;51.658;5.634;2023-01-31T05:01:00;102100;;;3.1;100.0
48680;BME280;34475;51.658;5.634;2023-01-31T05:02:00;102100;;;3.1;100.0
48680;BME280;34475;51.658;5.634;2023-01-31T05:03:00;102100;;;3.1;100.0
48680;BME280;34475;51.658;5.634;2023-01-31T05:04:00;102100;;;3.1;100.0
48680;BME280;34475;51.658;5.634;2023-01-31T05:05:00;102100;;;3.0;100.0
48680;BME280;34475;51.658;5.634;2023-01-31T05:06:00;102100;;;3.0;100.0
48680;BME280;34475;51.658;5.634;2023-01-31T05:07:00;102100;;;3.0;100.0
48680;BME280;34475;51.658;5.634;2023-01-31T05:08:00;102100;;;3.0;100.0
48680;BME280;34475;51.658;5.634;2023-01-31T05:09:00;102100;;;3.0;100.0
48680;BME280;34475;51.658;5.634;2023-01-31T05:10:00;102100;;;3.0;100.0
48680;BME280;34475;51.658;5.634;2023-01-31T05:11:01;102100;;;3.0;100.0
48680;BME280;34475;51.658;5.634;2023-01-31T05:12:00;102100;;;3.0;100.0
48680;BME280;34475;51.658;5.634;2023-01-31T05:13:00;102100;;;2.9;100.0
48680;BME280;34475;51.658;5.634;2023-01-31T05:14:00;102100;;;2.9;100.0
48680;BME280;34475;51.658;5.634;2023-01-31T05:15:00;102100;;;2.9;100.0
48680;BME280;34475;51.658;5.634;2023-01-31T05:16:00;102100;;;2.9;100.0
48680;BME280;34475;51.658;5.634;2023-01-31T05:17:00;102100;;;3.0;100.0
48680;BME280;34475;51.658;5.634;2023-01-31T05:18:00;102100;;;3.0;100.0
48680;BME280;34475;51.658;5.634;2023-01-31T05:19:00;102090;;;3.0;100.0
48680;BME280;34475;51.658;5.634;2023-01-31T05:20:00;102090;;;3.0;100.0
48680;BME280;34475;51.658;5.634;2023-01-31T05:21:00;102100;;;3.0;100.0
48680;BME280;34475;51.658;5.634;2023-01-31T05:22:00;102100;;;3.0;100.0
48680;BME280;34475;51.658;5.634;2023-01-31T05:23:00;102090;;;3.0;100.0
48680;BME280;34475;51.658;5.634;2023-01-31T05:24:00;102090;;;3.0;100.0
48680;BME280;34475;51.658;5.634;2023-01-31T05:25:00;102100;;;3.0;100.0
48680;BME280;34475;51.658;5.634;2023-01-31T05:26:00;102100;;;3.0;100.0
48680;BME280;34475;51.658;5.634;2023-01-31T05:27:00;102090;;;3.0;100.0
48680;BME280;34475;51.658;5.634;2023-01-31T05:28:00;102090;;;3.0;100.0
48680;BME280;34475;51.658;5.634;2023-01-31T05:29:00;102090;;;3.0;100.0
48680;BME280;34475;51.658;5.634;2023-01-31T05:30:00;102090;;;3.0;100.0
48680;BME280;34475;51.658;5.634;2023-01-31T05:31:01;102090;;;3.1;100.0
48680;BME280;34475;51.658;5.634;2023-01-31T05:32:00;102090;;;3.1;100.0
48680;BME280;34475;51.658;5.634;2023-01-31T05:33:00;102090;;;3.0;100.0
48680;BME280;34475;51.658;5.634;2023-01-31T05:34:00;102090;;;3.0;100.0
48680;BME280;34475;51.658;5.634;2023-01-31T05:35:00;102090;;;3.1;100.0
48680;BME280;34475;51.658;5.634;2023-01-31T05:36:00;102090;;;3.1;100.0
48680;BME280;34475;51.658;5.634;2023-01-31T05:37:00;102090;;;3.1;100.0
48680;BME280;34475;51.658;5.634;2023-01-31T05:38:00;102090;;;3.1;100.0
48680;BME280;34475;51.658;5.634;2023-01-31T05:39:00;102080;;;3.1;100.0
48680;BME280;34475;51.658;5.634;2023-01-31T05:40:00;102080;;;3.1;100.0
48680;BME280;34475;51.658;5.634;2023-01-31T05:41:00;102080;;;3.1;100.0
48680;BME280;34475;51.658;5.634;2023-01-31T05:42:00;102080;;;3.1;100.0
48680;BME280;34475;51.658;5.634;2023-01-31T05:43:00;102080;;;3.0;100.0
48680;BME280;34475;51.658;5.634;2023-01-31T05:44:00;102080;;;3.0;100.0
48680;BME280;34475;51.658;5.634;2023-01-31T05:45:00;102070;;;3.1;100.0
48680;BME280;34475;51.658;5.634;2023-01-31T05:46:00;102070;;;3.1;100.0
48680;BME280;34475;51.658;5.634;2023-01-31T05:47:00;102060;;;3.1;100.0
48680;BME280;34475;51.658;5.634;2023-01-31T05:48:00;102060;;;3.1;100.0
48680;BME280;34475;51.658;5.634;2023-01-31T05:49:00;102060;;;3.1;100.0
48680;BME280;34475;51.658;5.634;2023-01-31T05:50:00;102060;;;3.1;100.0
48680;BME280;34475;51.658;5.634;2023-01-31T05:51:00;102070;;;3.2;100.0
48680;BME280;34475;51.658;5.634;2023-01-31T05:52:00;102070;;;3.2;100.0
48680;BME280;34475;51.658;5.634;2023-01-31T05:53:00;102060;;;3.2;100.0
48680;BME280;34475;51.658;5.634;2023-01-31T05:54:00;102060;;;3.2;100.0
48680;BME280;34475;51.658;5.634;2023-01-31T05:55:00;102060;;;3.2;100.0
48680;BME280;34475;51.658;5.634;2023-01-31T05:56:00;102060;;;3.2;100.0
48680;BME280;34475;51.658;5.634;2023-01-31T05:57:00;102060;;;3.2;100.0
48680;BME280;34475;51.658;5.634;2023-01-31T05:58:00;102060;;;3.2;100.0